Time;durP1;ratioP1;P1;durP2;ratioP2;P2;SDS_P1;SDS_P2;PMS_P1;PMS_P2;Temp;Humidity;BMP_temperature;BMP_pressure;BME280_temperature;BME280_humidity;BME280_pressure;Samples;Min_cycle;Max_cycle;Signal;HPM_P1;HPM_P2
2021/07/19 00:01:44;;;;;;;6.75;5.17;;;;;;;28.97;52.21;99146.47;1817407;78;21380;-70
2021/07/19 00:04:11;;;;;;;6.03;5.42;;;;;;;28.95;52.31;99146.77;1821748;78;21096;-70
2021/07/19 00:06:37;;;;;;;6.47;5.75;;;;;;;28.96;52.40;99143.50;1809810;78;21064;-69
2021/07/19 00:09:04;;;;;;;7.03;5.25;;;;;;;28.95;52.46;99138.56;1824926;78;20994;-69
2021/07/19 00:11:32;;;;;;;5.85;5.35;;;;;;;28.95;52.58;99137.20;1816750;78;21029;-70
2021/07/19 00:13:59;;;;;;;5.95;5.30;;;;;;;28.95;52.68;99137.77;1825402;78;21484;-69
2021/07/19 00:16:27;;;;;;;6.22;5.62;;;;;;;28.95;52.80;99137.77;1823638;78;20974;-68
2021/07/19 00:18:53;;;;;;;6.30;5.70;;;;;;;28.95;52.87;99137.77;1823884;78;21056;-70
2021/07/19 00:21:21;;;;;;;7.55;6.10;;;;;;;28.94;52.94;99137.52;1828235;78;21008;-70
2021/07/19 00:23:48;;;;;;;5.90;5.30;;;;;;;28.95;53.03;99133.66;1817374;78;21005;-70
2021/07/19 00:26:16;;;;;;;6.22;5.58;;;;;;;28.95;53.11;99136.39;1825003;78;21061;-70
2021/07/19 00:28:42;;;;;;;6.65;5.95;;;;;;;28.94;53.21;99131.49;1828473;78;21080;-71
2021/07/19 00:31:08;;;;;;;6.72;5.40;;;;;;;28.94;53.27;99130.13;1810941;78;20994;-72
2021/07/19 00:33:36;;;;;;;6.45;5.85;;;;;;;28.94;53.30;99128.76;1822484;78;20997;-70
2021/07/19 00:36:04;;;;;;;6.35;5.65;;;;;;;28.94;53.34;99127.95;1815959;78;21025;-70
2021/07/19 00:38:31;;;;;;;5.90;5.12;;;;;;;28.94;53.34;99128.76;1807917;78;21009;-69
2021/07/19 00:40:58;;;;;;;6.25;5.62;;;;;;;28.94;53.42;99123.86;1808473;78;21026;-70
2021/07/19 00:43:26;;;;;;;6.22;5.62;;;;;;;28.94;53.47;99119.75;1824802;78;21001;-70
2021/07/19 00:45:53;;;;;;;6.60;5.85;;;;;;;28.94;53.52;99117.83;1825733;78;21540;-70
2021/07/19 00:48:19;;;;;;;5.28;4.78;;;;;;;28.94;53.58;99119.75;1826465;78;21030;-69
2021/07/19 00:50:46;;;;;;;6.15;5.55;;;;;;;28.93;53.64;99116.19;1818346;78;21541;-70
2021/07/19 00:53:13;;;;;;;6.42;5.80;;;;;;;28.93;53.70;99111.29;1823433;78;21768;-70
2021/07/19 00:55:46;;;;;;;6.30;5.67;;;;;;;28.93;53.72;99112.09;1819984;78;21469;-70
2021/07/19 00:58:14;;;;;;;6.40;5.80;;;;;;;28.93;53.78;99116.75;1808962;78;21101;-70
2021/07/19 01:00:45;;;;;;;6.22;5.42;;;;;;;28.93;53.82;99118.13;1804521;78;21560;-70
2021/07/19 01:03:14;;;;;;;6.22;5.62;;;;;;;28.92;53.89;99117.32;1829521;77;21524;-71
2021/07/19 01:05:42;;;;;;;5.50;4.97;;;;;;;28.92;53.99;99119.25;1809429;78;21113;-71
2021/07/19 01:08:10;;;;;;;5.92;4.97;;;;;;;28.93;53.94;99112.66;1811042;77;21042;-70
2021/07/19 01:10:38;;;;;;;5.10;4.60;;;;;;;28.92;54.02;99111.05;1826681;78;21603;-70
2021/07/19 01:13:06;;;;;;;5.83;5.25;;;;;;;28.91;54.08;99108.05;1827738;78;21489;-71
2021/07/19 01:15:36;;;;;;;5.95;5.35;;;;;;;28.91;54.11;99107.48;1826034;78;20994;-72
2021/07/19 01:18:05;;;;;;;5.17;4.67;;;;;;;28.90;54.17;99109.98;1830067;78;21145;-69
2021/07/19 01:20:56;;;;;;;6.53;5.92;;;;;;;28.90;54.21;99107.25;1829729;78;21207;-71
2021/07/19 01:23:50;;;;;;;5.17;4.70;;;;;;;28.91;54.25;99108.05;1819371;77;20977;-69
2021/07/19 01:26:41;;;;;;;5.85;5.33;;;;;;;28.89;54.30;99104.81;1810561;78;21072;-69
2021/07/19 01:29:07;;;;;;;5.92;5.33;;;;;;;28.87;54.38;99100.21;1824047;78;21071;-69
2021/07/19 01:31:44;;;;;;;6.00;5.40;;;;;;;28.86;54.48;99099.41;1829154;78;21471;-69
2021/07/19 01:34:20;;;;;;;5.62;5.12;;;;;;;28.87;54.56;99104.31;1831046;78;21096;-68
2021/07/19 01:36:55;;;;;;;5.92;5.42;;;;;;;28.86;54.63;99101.31;1824093;78;21004;-70
2021/07/19 01:39:27;;;;;;;5.95;5.35;;;;;;;28.85;54.61;99100.52;1828937;78;21532;-69
2021/07/19 01:41:55;;;;;;;5.37;4.85;;;;;;;28.83;54.73;99103.55;1831804;77;21049;-69
2021/07/19 01:44:22;;;;;;;5.80;5.20;;;;;;;28.84;54.79;99108.47;1816587;78;21757;-69
2021/07/19 01:46:49;;;;;;;6.40;5.80;;;;;;;28.83;54.82;99107.64;1833021;77;21006;-68
2021/07/19 01:49:18;;;;;;;6.17;5.58;;;;;;;28.85;54.86;99109.28;1825892;78;21567;-70
2021/07/19 01:51:44;;;;;;;6.10;5.28;;;;;;;28.85;54.89;99110.64;1821764;78;21000;-70
2021/07/19 01:54:13;;;;;;;6.78;5.40;;;;;;;28.83;54.89;99109.02;1772023;78;21116;-69
2021/07/19 01:56:40;;;;;;;5.90;5.40;;;;;;;28.85;54.88;99109.28;1819641;78;21142;-69
2021/07/19 01:59:07;;;;;;;5.75;5.20;;;;;;;28.86;54.95;99108.14;1826885;78;21087;-69
2021/07/19 02:01:36;;;;;;;5.72;5.22;;;;;;;28.85;54.93;99113.38;1824845;78;21060;-69
2021/07/19 02:04:02;;;;;;;5.75;5.15;;;;;;;28.85;54.93;99116.11;1818462;78;21032;-69
2021/07/19 02:06:29;;;;;;;6.15;5.55;;;;;;;28.85;54.94;99112.02;1825425;78;21040;-69
2021/07/19 02:09:05;;;;;;;5.42;4.92;;;;;;;28.86;54.93;99113.61;1823472;78;21047;-68
2021/07/19 02:11:37;;;;;;;6.03;5.37;;;;;;;28.86;54.95;99110.34;1824344;77;21076;-69
2021/07/19 02:14:07;;;;;;;6.42;5.83;;;;;;;28.86;55.02;99110.88;1828460;78;21002;-68
2021/07/19 02:16:37;;;;;;;5.62;5.12;;;;;;;28.86;55.12;99111.71;1825641;78;20992;-68
2021/07/19 02:19:04;;;;;;;6.08;5.47;;;;;;;28.86;55.11;99119.08;1824107;78;20988;-68
2021/07/19 02:21:32;;;;;;;5.50;5.00;;;;;;;28.86;55.14;99112.24;1813834;78;21116;-68
2021/07/19 02:24:02;;;;;;;5.85;5.25;;;;;;;28.86;55.15;99117.18;1815155;78;21014;-69
2021/07/19 02:26:31;;;;;;;5.83;5.20;;;;;;;28.86;55.18;99124.02;1808986;78;21902;-69
2021/07/19 02:28:58;;;;;;;5.40;4.90;;;;;;;28.86;55.17;99124.55;1814521;78;22166;-69
2021/07/19 02:31:26;;;;;;;5.75;5.25;;;;;;;28.86;55.17;99125.91;1818357;78;20994;-69
2021/07/19 02:33:53;;;;;;;5.75;5.12;;;;;;;28.86;55.19;99133.58;1820727;78;21699;-69
2021/07/19 02:36:22;;;;;;;5.65;5.15;;;;;;;28.87;55.21;99127.55;1822906;78;21014;-70
2021/07/19 02:38:50;;;;;;;6.25;5.65;;;;;;;28.86;55.13;99130.84;1819356;78;21049;-70
2021/07/19 02:41:24;;;;;;;6.10;5.60;;;;;;;28.87;55.10;99133.02;1821875;78;25492;-70
2021/07/19 02:43:53;;;;;;;5.90;5.37;;;;;;;28.86;55.13;99131.38;1812748;78;21034;-69
2021/07/19 02:46:24;;;;;;;5.97;5.45;;;;;;;28.86;55.14;99136.84;1825066;78;21499;-69
2021/07/19 02:48:56;;;;;;;7.35;5.40;;;;;;;28.86;55.19;99143.68;1824518;78;21592;-69
2021/07/19 02:51:23;;;;;;;6.22;5.72;;;;;;;28.85;55.17;99138.78;1823300;78;21119;-69
2021/07/19 02:53:51;;;;;;;6.03;5.40;;;;;;;28.85;55.20;99148.34;1815519;78;21029;-69
2021/07/19 02:56:20;;;;;;;5.53;5.08;;;;;;;28.85;55.23;99148.91;1821249;78;20997;-70
2021/07/19 02:58:48;;;;;;;5.83;5.20;;;;;;;28.85;55.26;99153.81;1819980;78;21115;-70
2021/07/19 03:01:20;;;;;;;5.95;5.45;;;;;;;28.85;55.27;99162.02;1824609;78;21244;-70
2021/07/19 03:03:47;;;;;;;6.80;5.80;;;;;;;28.86;55.26;99162.81;1825847;78;21013;-70
2021/07/19 03:06:20;;;;;;;6.05;5.45;;;;;;;28.84;55.27;99159.05;1824429;78;20978;-70
2021/07/19 03:08:47;;;;;;;6.50;5.90;;;;;;;28.85;55.28;99162.02;1804095;78;21053;-70
2021/07/19 03:11:40;;;;;;;6.85;6.12;;;;;;;28.84;55.18;99174.08;1821105;78;21131;-71
2021/07/19 03:14:11;;;;;;;6.33;5.72;;;;;;;28.85;55.20;99173.52;1823691;78;21049;-69
2021/07/19 03:16:37;;;;;;;6.10;5.60;;;;;;;28.83;55.22;99171.88;1821333;78;21092;-69
2021/07/19 03:19:08;;;;;;;7.15;5.87;;;;;;;28.83;55.26;99176.54;1773463;78;21033;-68
2021/07/19 03:21:37;;;;;;;6.05;5.53;;;;;;;28.83;55.26;99167.77;1824565;78;21014;-68
2021/07/19 03:24:08;;;;;;;5.80;5.30;;;;;;;28.84;55.28;99172.71;1818559;77;21117;-68
2021/07/19 03:26:37;;;;;;;6.00;5.40;;;;;;;28.83;55.33;99177.34;1814545;78;21045;-69
2021/07/19 03:29:05;;;;;;;7.65;6.15;;;;;;;28.84;55.32;99176.81;1820476;78;21084;-70
2021/07/19 03:31:34;;;;;;;9.38;5.97;;;;;;;28.83;55.34;99177.34;1784081;78;21030;-68
2021/07/19 03:34:03;;;;;;;6.80;5.50;;;;;;;28.85;55.34;99188.55;1806786;78;21469;-68
2021/07/19 03:36:31;;;;;;;6.78;6.17;;;;;;;28.84;55.35;99185.02;1819486;78;21129;-68
2021/07/19 03:38:59;;;;;;;8.08;6.00;;;;;;;28.83;55.38;99186.91;1825094;78;21068;-68
2021/07/19 03:41:32;;;;;;;6.55;5.95;;;;;;;28.85;55.30;99185.81;1811457;78;21030;-69
2021/07/19 03:44:00;;;;;;;5.90;5.37;;;;;;;28.85;55.27;99187.98;1816856;78;21461;-68
2021/07/19 03:46:28;;;;;;;7.95;5.95;;;;;;;28.85;55.28;99186.61;1823447;78;21050;-68
2021/07/19 03:48:55;;;;;;;6.15;5.55;;;;;;;28.85;55.30;99183.08;1811244;78;21106;-68
2021/07/19 03:51:22;;;;;;;5.97;5.47;;;;;;;28.86;55.33;99187.42;1822790;78;21049;-68
2021/07/19 03:53:50;;;;;;;7.35;6.58;;;;;;;28.85;55.33;99185.25;1791426;78;20993;-68
2021/07/19 03:56:17;;;;;;;6.20;5.60;;;;;;;28.86;55.32;99183.31;1809796;78;20993;-69
2021/07/19 03:58:44;;;;;;;6.15;5.55;;;;;;;28.86;55.32;99180.58;1824468;78;21532;-68
2021/07/19 04:01:11;;;;;;;6.47;5.80;;;;;;;28.86;55.34;99181.95;1790585;78;21096;-69
2021/07/19 04:03:52;;;;;;;6.35;5.75;;;;;;;28.87;55.38;99186.31;1814721;78;21057;-69
2021/07/19 04:06:20;;;;;;;5.65;5.17;;;;;;;28.87;55.39;99184.95;1794403;78;21061;-69
2021/07/19 04:08:55;;;;;;;6.53;5.75;;;;;;;28.87;55.39;99183.58;1815517;78;21438;-69
2021/07/19 04:11:23;;;;;;;6.60;6.00;;;;;;;28.87;55.34;99184.95;1820316;78;21028;-69
2021/07/19 04:13:53;;;;;;;6.03;5.53;;;;;;;28.87;55.34;99183.58;1821128;77;21124;-69
2021/07/19 04:16:22;;;;;;;6.72;5.50;;;;;;;28.87;55.36;99176.19;1822704;77;20998;-70
2021/07/19 04:18:49;;;;;;;5.62;5.12;;;;;;;28.88;55.37;99181.09;1821557;78;21006;-70
2021/07/19 04:21:17;;;;;;;5.62;5.12;;;;;;;28.88;55.43;99179.19;1817609;78;20961;-70
2021/07/19 04:23:44;;;;;;;6.30;5.60;;;;;;;28.89;55.48;99178.63;1822228;78;21005;-70
2021/07/19 04:26:21;;;;;;;7.90;6.08;;;;;;;28.90;55.50;99178.89;1808386;78;21168;-69
2021/07/19 04:28:49;;;;;;;6.10;5.50;;;;;;;28.90;55.58;99180.26;1818508;78;21022;-70
2021/07/19 04:31:17;;;;;;;6.35;5.42;;;;;;;28.90;55.58;99178.33;1795555;78;20967;-69
2021/07/19 04:33:45;;;;;;;5.95;5.37;;;;;;;28.90;55.61;99174.22;1813605;78;21489;-70
2021/07/19 04:36:13;;;;;;;5.72;5.22;;;;;;;28.91;55.66;99179.92;1823622;78;21088;-70
2021/07/19 04:38:40;;;;;;;6.17;5.67;;;;;;;28.92;55.70;99181.56;1822103;78;21128;-70
2021/07/19 04:41:07;;;;;;;5.25;4.83;;;;;;;28.93;55.70;99179.63;1825790;78;21568;-70
2021/07/19 04:43:34;;;;;;;6.00;5.40;;;;;;;28.94;55.64;99175.80;1810038;78;20981;-70
2021/07/19 04:46:01;;;;;;;6.87;5.37;;;;;;;28.94;55.65;99174.43;1805483;78;21017;-69
2021/07/19 04:48:28;;;;;;;5.50;5.00;;;;;;;28.95;55.66;99177.41;1817617;78;21069;-69
2021/07/19 04:50:55;;;;;;;6.12;5.53;;;;;;;28.95;55.64;99180.94;1822485;78;21061;-69
2021/07/19 04:53:21;;;;;;;5.60;4.97;;;;;;;28.96;55.67;99180.41;1824678;78;21077;-69
2021/07/19 04:55:51;;;;;;;6.62;5.80;;;;;;;28.98;55.66;99179.54;1824867;78;21520;-69
2021/07/19 04:58:21;;;;;;;6.50;5.92;;;;;;;28.99;55.66;99175.14;1824666;78;21021;-69
2021/07/19 05:01:02;;;;;;;5.90;5.40;;;;;;;29.00;55.64;99177.31;1825047;78;21108;-70
2021/07/19 05:03:31;;;;;;;6.47;5.78;;;;;;;29.01;55.60;99179.75;1817269;78;21927;-69
2021/07/19 05:05:58;;;;;;;6.33;5.70;;;;;;;29.01;55.62;99179.75;1787242;78;21030;-69
2021/07/19 05:08:25;;;;;;;7.62;6.20;;;;;;;29.01;55.60;99175.64;1825494;78;21563;-70
2021/07/19 05:10:51;;;;;;;7.53;6.70;;;;;;;29.02;55.63;99169.61;1819888;77;21061;-71
2021/07/19 05:13:18;;;;;;;11.05;6.87;;;;;;;29.01;55.79;99166.61;1828038;77;21082;-72
2021/07/19 05:15:45;;;;;;;10.85;7.25;;;;;;;28.96;56.08;99170.84;1823274;78;21093;-72
2021/07/19 05:18:11;;;;;;;11.05;6.50;;;;;;;28.92;56.35;99169.83;1798998;78;21099;-73
2021/07/19 05:20:41;;;;;;;8.50;6.92;;;;;;;28.87;56.58;99167.19;1817042;78;21619;-73
2021/07/19 05:23:08;;;;;;;7.97;7.17;;;;;;;28.82;56.84;99176.30;1826970;78;21525;-73
2021/07/19 05:25:35;;;;;;;10.55;7.60;;;;;;;28.76;57.03;99166.56;1829247;78;21425;-73
2021/07/19 05:28:12;;;;;;;8.88;7.15;;;;;;;28.72;57.27;99170.45;1827988;78;21136;-74
2021/07/19 05:30:43;;;;;;;8.98;7.25;;;;;;;28.67;57.44;99173.30;1811376;78;21021;-73
2021/07/19 05:33:10;;;;;;;10.25;7.45;;;;;;;28.64;57.64;99168.42;1829843;78;21033;-72
2021/07/19 05:35:37;;;;;;;9.93;7.90;;;;;;;28.61;57.81;99169.05;1829832;78;20981;-72
2021/07/19 05:38:03;;;;;;;8.63;7.28;;;;;;;28.58;57.95;99172.37;1820999;78;21029;-72
2021/07/19 05:40:31;;;;;;;9.78;7.40;;;;;;;28.56;57.99;99171.86;1818480;78;21100;-72
2021/07/19 05:42:59;;;;;;;9.10;7.25;;;;;;;28.53;57.77;99169.72;1808592;78;21504;-71
2021/07/19 05:45:26;;;;;;;8.28;7.47;;;;;;;28.50;57.70;99165.64;1829163;78;21004;-71
2021/07/19 05:47:53;;;;;;;8.83;7.45;;;;;;;28.48;57.61;99167.06;1830512;78;20993;-72
2021/07/19 05:50:19;;;;;;;10.55;7.85;;;;;;;28.46;57.48;99162.46;1826110;78;21079;-72
2021/07/19 05:52:46;;;;;;;8.53;7.72;;;;;;;28.44;57.28;99162.75;1811958;78;22344;-71
2021/07/19 05:55:13;;;;;;;10.58;8.03;;;;;;;28.41;57.05;99161.45;1824573;78;21036;-72
2021/07/19 05:57:40;;;;;;;9.45;7.87;;;;;;;28.39;57.01;99160.11;1818304;78;21021;-72
2021/07/19 06:00:11;;;;;;;8.68;7.50;;;;;;;28.37;57.49;99167.23;1810735;78;21021;-70
2021/07/19 06:02:40;;;;;;;8.55;6.58;;;;;;;28.35;57.93;99167.28;1817240;76;21039;-73
2021/07/19 06:05:09;;;;;;;10.28;7.90;;;;;;;28.33;58.26;99164.84;1828539;76;21996;-71
2021/07/19 06:07:35;;;;;;;8.40;7.22;;;;;;;28.33;58.54;99170.31;1829343;78;20993;-71
2021/07/19 06:10:04;;;;;;;10.20;7.60;;;;;;;28.32;58.79;99172.80;1827646;76;21013;-71
2021/07/19 06:12:30;;;;;;;8.63;7.12;;;;;;;28.30;58.42;99171.45;1831304;78;21060;-71
2021/07/19 06:14:57;;;;;;;10.40;7.97;;;;;;;28.29;57.33;99180.78;1821732;78;20982;-73
2021/07/19 06:17:24;;;;;;;10.38;7.80;;;;;;;28.28;56.74;99179.14;1825714;77;22254;-72
2021/07/19 06:19:50;;;;;;;10.78;7.67;;;;;;;28.27;56.51;99187.09;1827077;77;20998;-73
2021/07/19 06:22:17;;;;;;;11.38;7.78;;;;;;;28.25;56.41;99186.02;1816905;77;21001;-73
2021/07/19 06:24:44;;;;;;;12.90;7.85;;;;;;;28.25;56.34;99192.84;1808433;76;21002;-69
2021/07/19 06:27:12;;;;;;;15.80;10.25;;;;;;;28.25;56.61;99196.95;1810566;77;20997;-71
2021/07/19 06:29:39;;;;;;;16.65;11.95;;;;;;;28.23;57.17;99193.14;1819555;77;21142;-72
2021/07/19 06:32:06;;;;;;;20.77;14.15;;;;;;;28.27;57.70;99199.38;1826813;77;21040;-70
2021/07/19 06:34:33;;;;;;;19.35;13.38;;;;;;;28.29;57.99;99190.34;1821949;77;21310;-71
2021/07/19 06:37:00;;;;;;;20.50;13.38;;;;;;;28.33;57.93;99191.36;1815261;78;21033;-67
2021/07/19 06:39:26;;;;;;;18.85;13.60;;;;;;;28.36;57.95;99194.87;1809552;78;21527;-67
2021/07/19 06:41:52;;;;;;;20.62;13.88;;;;;;;28.39;58.36;99199.15;1822760;77;21505;-69
2021/07/19 06:44:19;;;;;;;18.35;12.98;;;;;;;28.44;58.70;99201.00;1824062;77;21581;-68
2021/07/19 06:46:46;;;;;;;17.73;13.00;;;;;;;28.47;58.63;99201.75;1818210;77;21025;-69
2021/07/19 06:49:12;;;;;;;18.12;13.75;;;;;;;28.52;58.64;99199.53;1818876;77;21068;-65
2021/07/19 06:51:39;;;;;;;15.25;11.78;;;;;;;28.55;58.68;99197.55;1819667;77;21375;-64
2021/07/19 06:54:05;;;;;;;18.52;13.15;;;;;;;28.58;58.56;99203.23;1809515;78;21096;-65
2021/07/19 06:56:32;;;;;;;16.75;12.55;;;;;;;28.61;58.62;99202.64;1816944;77;21480;-66
2021/07/19 06:58:58;;;;;;;14.53;11.40;;;;;;;28.64;58.63;99199.84;1816293;78;21517;-67
2021/07/19 07:01:25;;;;;;;16.57;12.75;;;;;;;28.69;58.62;99200.33;1806809;78;20962;-67
2021/07/19 07:03:51;;;;;;;16.97;12.03;;;;;;;28.72;58.58;99203.80;1819544;77;21452;-66
2021/07/19 07:06:17;;;;;;;14.90;12.30;;;;;;;28.74;58.59;99201.05;1810938;77;21110;-66
2021/07/19 07:08:44;;;;;;;15.05;11.83;;;;;;;28.76;58.75;99193.36;1817297;77;21040;-66
2021/07/19 07:11:10;;;;;;;16.85;13.45;;;;;;;28.79;58.50;99181.00;1816263;77;21545;-66
2021/07/19 07:13:38;;;;;;;16.60;12.47;;;;;;;28.82;58.60;99188.60;1806959;77;21009;-67
2021/07/19 07:16:07;;;;;;;15.00;12.20;;;;;;;28.83;58.63;99185.55;1805629;77;21040;-68
2021/07/19 07:18:34;;;;;;;17.07;12.98;;;;;;;28.86;58.70;99176.48;1818410;77;21149;-65
2021/07/19 07:21:00;;;;;;;16.42;12.85;;;;;;;28.88;58.71;99172.89;1825678;77;21049;-65
2021/07/19 07:23:26;;;;;;;15.20;11.53;;;;;;;28.90;58.43;99173.42;1824509;78;21061;-65
2021/07/19 07:25:53;;;;;;;14.58;11.78;;;;;;;28.92;58.43;99172.56;1818542;77;21513;-64
2021/07/19 07:28:19;;;;;;;13.05;11.68;;;;;;;28.94;58.58;99167.59;1807084;77;21583;-65
2021/07/19 07:30:46;;;;;;;15.68;12.45;;;;;;;28.96;58.51;99157.16;1808092;78;22425;-67
2021/07/19 07:33:12;;;;;;;13.50;12.00;;;;;;;28.99;58.30;99160.64;1819658;77;21492;-66
2021/07/19 07:35:40;;;;;;;13.78;12.18;;;;;;;29.01;58.29;99166.61;1817202;77;21505;-65
2021/07/19 07:38:08;;;;;;;14.70;12.47;;;;;;;29.02;58.23;99160.05;1827068;77;21110;-66
2021/07/19 07:40:35;;;;;;;13.55;12.15;;;;;;;29.05;58.17;99164.08;1804498;77;21037;-64
2021/07/19 07:43:01;;;;;;;13.05;11.60;;;;;;;29.07;58.08;99161.31;1784678;78;21164;-64
2021/07/19 07:45:28;;;;;;;14.15;11.75;;;;;;;29.08;58.25;99151.98;1780076;78;21032;-66
2021/07/19 07:47:54;;;;;;;15.85;12.15;;;;;;;29.10;58.30;99145.64;1783891;78;21087;-64
2021/07/19 07:50:21;;;;;;;14.33;12.82;;;;;;;29.13;58.51;99140.14;1785111;79;21044;-64
2021/07/19 07:52:47;;;;;;;16.00;12.23;;;;;;;29.15;58.44;99136.02;1766454;78;21035;-65
2021/07/19 07:55:14;;;;;;;13.85;11.85;;;;;;;29.16;58.49;99133.52;1765159;78;21127;-65
2021/07/19 07:57:40;;;;;;;12.60;11.10;;;;;;;29.19;58.66;99130.74;1774137;79;20981;-65
2021/07/19 08:00:16;;;;;;;13.55;11.63;;;;;;;29.21;58.99;99129.31;1768653;78;21122;-66
2021/07/19 08:02:43;;;;;;;15.35;11.97;;;;;;;29.25;59.08;99120.50;1767945;78;21546;-67
2021/07/19 08:05:11;;;;;;;14.10;11.75;;;;;;;29.26;58.94;99102.96;1764788;80;21093;-67
2021/07/19 08:07:37;;;;;;;15.72;12.40;;;;;;;29.27;58.59;99094.45;1767917;78;21104;-67
2021/07/19 08:10:07;;;;;;;15.30;11.60;;;;;;;29.30;58.09;99094.38;1771306;80;21035;-66
2021/07/19 08:12:34;;;;;;;12.13;10.82;;;;;;;29.34;57.45;99088.01;1779574;80;21063;-69
2021/07/19 08:15:03;;;;;;;14.30;11.12;;;;;;;29.38;57.55;99074.49;1776984;79;21003;-69
2021/07/19 08:17:31;;;;;;;13.20;11.68;;;;;;;29.40;57.99;99070.35;1771314;80;21068;-68
2021/07/19 08:19:58;;;;;;;13.25;11.93;;;;;;;29.44;58.38;99077.92;1785974;78;21767;-66
2021/07/19 08:22:25;;;;;;;12.33;11.15;;;;;;;29.47;58.53;99068.54;1763802;81;21038;-66
2021/07/19 08:24:52;;;;;;;17.85;12.43;;;;;;;29.49;58.44;99074.51;1759841;81;21166;-67
2021/07/19 08:27:18;;;;;;;14.00;12.13;;;;;;;29.50;58.64;99072.61;1742990;81;21003;-69
2021/07/19 08:29:45;;;;;;;13.80;11.08;;;;;;;29.51;58.68;99048.21;1753700;81;21024;-69
2021/07/19 08:32:12;;;;;;;19.00;13.18;;;;;;;29.53;58.37;99040.50;1761373;81;21126;-71
2021/07/19 08:34:40;;;;;;;11.97;10.78;;;;;;;29.53;58.26;99065.13;1761622;81;21077;-70
2021/07/19 08:37:06;;;;;;;12.07;10.80;;;;;;;29.54;57.22;99089.45;1762420;81;21006;-73
2021/07/19 08:39:34;;;;;;;12.35;10.90;;;;;;;29.53;56.34;99111.64;1765719;81;21050;-68
2021/07/19 08:42:01;;;;;;;11.80;9.45;;;;;;;29.53;55.93;99129.42;1749551;81;21097;-68
2021/07/19 08:44:28;;;;;;;12.82;10.35;;;;;;;29.53;56.19;99168.53;1757661;81;21794;-65
2021/07/19 08:46:55;;;;;;;15.55;11.35;;;;;;;29.53;56.38;99228.73;1754655;80;21091;-66
2021/07/19 08:49:22;;;;;;;13.25;11.25;;;;;;;29.55;56.73;99258.00;1755578;80;21056;-65
2021/07/19 08:51:48;;;;;;;12.70;11.00;;;;;;;29.55;56.99;99251.16;1772397;78;21062;-66
2021/07/19 08:54:14;;;;;;;17.87;11.22;;;;;;;29.55;56.91;99244.86;1775007;78;21070;-68
2021/07/19 08:56:41;;;;;;;11.75;9.88;;;;;;;29.56;56.82;99269.75;1767203;79;21140;-66
2021/07/19 08:59:08;;;;;;;15.63;10.93;;;;;;;29.55;56.60;99241.58;1764675;80;21066;-67
2021/07/19 09:01:37;;;;;;;12.47;10.50;;;;;;;29.55;56.67;99247.05;1771143;78;21096;-70
2021/07/19 09:04:04;;;;;;;12.05;10.13;;;;;;;29.55;56.73;99258.00;1734874;80;21089;-67
2021/07/19 09:06:31;;;;;;;12.45;10.23;;;;;;;29.55;56.73;99319.58;1734908;80;21050;-75
2021/07/19 09:09:02;;;;;;;14.73;9.73;;;;;;;29.54;56.88;99352.14;1737618;80;21147;-73
2021/07/19 09:11:26;;;;;;;12.47;9.18;;;;;;;29.53;56.57;99369.66;1768467;78;21046;-68
2021/07/19 09:14:05;;;;;;;11.85;9.98;;;;;;;29.53;56.54;99360.09;1762052;80;21089;-67
2021/07/19 09:16:44;;;;;;;12.23;8.90;;;;;;;29.52;56.52;99307.05;1771648;80;21024;-69
2021/07/19 09:19:17;;;;;;;12.55;8.48;;;;;;;29.50;56.00;99288.77;1769824;78;21509;-71
2021/07/19 09:21:47;;;;;;;10.53;8.40;;;;;;;29.43;55.41;99289.16;1757922;78;21235;-69
2021/07/19 09:24:20;;;;;;;9.90;8.20;;;;;;;29.34;55.01;99270.45;1765350;78;21116;-72
2021/07/19 09:26:49;;;;;;;10.08;8.00;;;;;;;29.26;55.16;99240.52;1769374;78;21044;-69
2021/07/19 09:29:18;;;;;;;13.30;7.87;;;;;;;29.21;55.08;99218.77;1766008;78;21504;-68
2021/07/19 09:31:55;;;;;;;8.20;7.10;;;;;;;29.17;55.42;99227.33;1772214;78;21319;-69
2021/07/19 09:34:27;;;;;;;11.55;10.08;;;;;;;29.14;55.29;99247.87;1759510;80;21828;-70
2021/07/19 09:37:08;;;;;;;9.58;8.15;;;;;;;29.10;54.83;99301.52;1755644;80;21073;-69
2021/07/19 09:39:50;;;;;;;11.63;7.87;;;;;;;29.05;54.96;99319.38;1751469;80;21041;-65
2021/07/19 09:42:19;;;;;;;11.88;7.92;;;;;;;29.01;55.00;99321.09;1751258;78;21055;-64
2021/07/19 09:44:59;;;;;;;9.55;7.58;;;;;;;28.97;55.02;99323.61;1747606;80;21006;-64
2021/07/19 09:47:38;;;;;;;13.65;10.15;;;;;;;28.94;55.18;99321.50;1751371;78;21094;-65
2021/07/19 09:50:18;;;;;;;17.90;9.93;;;;;;;28.91;55.59;99328.11;1751331;78;21041;-70
2021/07/19 09:52:45;;;;;;;15.75;9.88;;;;;;;28.88;56.62;99349.20;1762311;79;21594;-70
2021/07/19 09:55:13;;;;;;;11.03;7.95;;;;;;;28.86;57.00;99339.96;1768589;78;21036;-68
2021/07/19 09:57:40;;;;;;;11.70;7.80;;;;;;;28.82;56.99;99309.67;1772528;79;21034;-69
2021/07/19 10:00:08;;;;;;;15.25;13.58;;;;;;;28.81;57.13;99268.41;1779146;79;21110;-69
2021/07/19 10:02:39;;;;;;;19.60;16.02;;;;;;;28.81;57.31;99256.10;1766268;78;21089;-66
2021/07/19 10:05:09;;;;;;;15.58;13.05;;;;;;;28.82;57.22;99278.80;1758141;78;21100;-66
2021/07/19 10:07:36;;;;;;;18.20;14.47;;;;;;;28.82;57.24;99297.94;1776547;78;21088;-66
2021/07/19 10:10:07;;;;;;;12.93;10.38;;;;;;;28.81;57.22;99318.97;1749385;80;22267;-68
2021/07/19 10:12:33;;;;;;;13.18;9.30;;;;;;;28.82;57.24;99335.64;1764661;78;21158;-68
2021/07/19 10:15:05;;;;;;;13.35;9.60;;;;;;;28.81;57.14;99342.20;1765719;78;21503;-68
2021/07/19 10:17:33;;;;;;;11.43;9.45;;;;;;;28.81;57.22;99333.20;1772727;78;21073;-67
2021/07/19 10:20:01;;;;;;;12.33;9.15;;;;;;;28.83;57.21;99324.14;1758705;80;21026;-68
2021/07/19 10:22:27;;;;;;;12.30;8.70;;;;;;;28.82;57.18;99317.88;1750722;78;21150;-64
2021/07/19 10:24:54;;;;;;;12.63;9.18;;;;;;;28.81;57.14;99309.41;1770342;78;21135;-65
2021/07/19 10:27:29;;;;;;;13.68;8.95;;;;;;;28.80;57.20;99306.44;1790555;78;21088;-65
2021/07/19 10:29:56;;;;;;;11.65;8.75;;;;;;;28.78;57.33;99290.89;1787253;78;21633;-64
2021/07/19 10:32:23;;;;;;;10.78;8.88;;;;;;;28.76;57.40;99275.34;1790364;78;21116;-66
2021/07/19 10:34:51;;;;;;;12.33;8.15;;;;;;;28.74;57.46;99265.27;1791256;78;21056;-64
2021/07/19 10:37:46;;;;;;;10.60;8.83;;;;;;;28.73;57.58;99254.07;1740511;79;21100;-67
2021/07/19 10:40:21;;;;;;;11.00;8.28;;;;;;;28.72;57.76;99262.00;1761254;79;21102;-65
2021/07/19 10:42:48;;;;;;;11.43;8.70;;;;;;;28.69;57.82;99273.55;1787515;78;21118;-67
2021/07/19 10:45:18;;;;;;;11.30;8.45;;;;;;;28.67;57.73;99290.80;1709029;80;21098;-68
2021/07/19 10:47:54;;;;;;;12.93;9.48;;;;;;;28.66;57.68;99327.98;1763055;80;21124;-67
2021/07/19 10:50:25;;;;;;;12.43;8.88;;;;;;;28.62;57.63;99364.09;1726897;80;21654;-67
2021/07/19 10:52:57;;;;;;;12.47;9.53;;;;;;;28.52;57.85;99394.88;1773617;79;21072;-66
2021/07/19 10:55:29;;;;;;;13.72;9.73;;;;;;;28.49;58.19;99430.95;1776115;79;21099;-66
2021/07/19 10:58:07;;;;;;;13.43;10.08;;;;;;;28.39;58.57;99450.45;1773493;79;21492;-67
2021/07/19 11:00:42;;;;;;;12.60;9.00;;;;;;;28.29;58.97;99467.55;1781639;79;21031;-68
2021/07/19 11:03:11;;;;;;;13.43;9.13;;;;;;;28.21;59.32;99449.89;1783265;79;21486;-66
2021/07/19 11:05:44;;;;;;;13.75;9.95;;;;;;;28.14;59.56;99440.67;1778306;79;21037;-69
2021/07/19 11:08:25;;;;;;;;;;;;;;;28.10;59.84;99426.55;1777576;79;21073;-67
2021/07/19 11:10:55;;;;;;;14.65;9.30;;;;;;;28.06;59.57;99389.45;1776802;80;20472;-67
2021/07/19 11:13:33;;;;;;;14.55;10.30;;;;;;;27.95;59.67;99310.98;1790057;78;21056;-69
2021/07/19 11:16:01;;;;;;;12.13;8.80;;;;;;;27.94;59.72;99185.15;1788823;78;21099;-71
2021/07/19 11:18:30;;;;;;;12.80;8.78;;;;;;;27.95;59.55;99189.52;1791074;78;21090;-68
2021/07/19 11:20:58;;;;;;;14.95;9.70;;;;;;;27.95;59.45;99264.58;1790076;78;21135;-69
2021/07/19 11:23:37;;;;;;;10.38;8.13;;;;;;;27.95;59.26;99289.15;1765409;80;21057;-68
2021/07/19 11:26:08;;;;;;;10.90;8.70;;;;;;;27.94;59.15;99280.69;1762256;80;21667;-67
2021/07/19 11:28:42;;;;;;;12.68;8.45;;;;;;;27.94;59.05;99243.84;1757905;80;21110;-68
2021/07/19 11:31:30;;;;;;;10.10;8.10;;;;;;;27.94;59.07;99234.84;1778226;78;21045;-68
2021/07/19 11:34:01;;;;;;;11.15;6.75;;;;;;;27.94;59.03;99231.55;1732898;80;21027;-67
2021/07/19 11:36:34;;;;;;;11.43;8.13;;;;;;;27.97;59.09;99226.05;1783050;78;21033;-69